createdAt,value
2018-03-18T00:00:24.443Z,101625.34
2018-03-18T00:02:52.752Z,101629.02
2018-03-18T00:05:21.087Z,101623.16
2018-03-18T00:07:50.207Z,101627.03
2018-03-18T00:10:18.638Z,101623.44
2018-03-18T00:12:47.018Z,101639.63
2018-03-18T00:15:15.385Z,101636.31
2018-03-18T00:17:44.238Z,101630.39
2018-03-18T00:20:12.558Z,101639.41
2018-03-18T00:22:42.157Z,101639.09
2018-03-18T00:25:11.298Z,101645.03
2018-03-18T00:27:40.533Z,101640.33
2018-03-18T00:30:08.907Z,101645.60
2018-03-18T00:32:37.247Z,101651.68
2018-03-18T00:35:06.208Z,101656.45
2018-03-18T00:37:34.597Z,101651.64
2018-03-18T00:40:03.710Z,101660.16
2018-03-18T00:42:32.050Z,101653.69
2018-03-18T00:45:01.264Z,101658.99
2018-03-18T00:47:30.336Z,101662.54
2018-03-18T00:49:59.522Z,101654.95
2018-03-18T00:52:27.893Z,101654.64
2018-03-18T00:54:56.281Z,101661.34
2018-03-18T00:57:24.630Z,101660.22
2018-03-18T00:59:53.723Z,101656.55
2018-03-18T01:02:22.058Z,101658.44
2018-03-18T01:04:51.127Z,101666.11
2018-03-18T01:07:19.528Z,101661.52
2018-03-18T01:09:47.854Z,101656.03
2018-03-18T01:12:16.172Z,101657.17
2018-03-18T01:14:44.542Z,101652.94
2018-03-18T01:17:12.868Z,101660.37
2018-03-18T01:19:41.212Z,101657.75
2018-03-18T01:22:09.575Z,101663.92
2018-03-18T01:24:37.899Z,101670.31
2018-03-18T01:27:07.112Z,101665.85
2018-03-18T01:29:35.963Z,101658.41
2018-03-18T01:32:04.262Z,101660.56
2018-03-18T01:34:43.436Z,101663.96
2018-03-18T01:37:11.778Z,101659.52
2018-03-18T01:39:40.872Z,101653.75
2018-03-18T01:42:09.228Z,101648.66
2018-03-18T01:44:38.539Z,101653.61
2018-03-18T01:47:06.866Z,101656.17
2018-03-18T01:49:35.419Z,101654.05
2018-03-18T01:52:03.787Z,101640.35
2018-03-18T01:54:32.872Z,101650.04
2018-03-18T01:57:01.259Z,101662.56
2018-03-18T01:59:30.360Z,101653.77
2018-03-18T02:01:59.454Z,101660.10
2018-03-18T02:04:28.612Z,101657.52
2018-03-18T02:06:56.966Z,101655.67
2018-03-18T02:09:25.339Z,101673.54
2018-03-18T02:11:54.331Z,101648.82
2018-03-18T02:14:22.646Z,101653.17
2018-03-18T02:16:50.999Z,101653.94
2018-03-18T02:19:19.419Z,101651.92
2018-03-18T02:21:48.536Z,101656.23
2018-03-18T02:24:17.644Z,101652.45
2018-03-18T02:26:45.996Z,101653.36
2018-03-18T02:29:15.141Z,101652.81
2018-03-18T02:31:43.482Z,101654.91
2018-03-18T02:34:13.110Z,101653.35
2018-03-18T02:36:41.430Z,101650.58
2018-03-18T02:39:09.748Z,101654.97
2018-03-18T02:41:38.888Z,101653.03
2018-03-18T02:44:07.282Z,101648.81
2018-03-18T02:46:35.650Z,101649.05
2018-03-18T02:49:04.305Z,101652.21
2018-03-18T02:51:32.665Z,101636.84
2018-03-18T02:54:00.983Z,101640.97
2018-03-18T02:56:29.636Z,101648.20
2018-03-18T02:58:57.985Z,101637.52
2018-03-18T03:01:26.356Z,101635.42
2018-03-18T03:03:55.504Z,101642.56
2018-03-18T03:06:23.842Z,101642.83
2018-03-18T03:08:52.218Z,101638.62
2018-03-18T03:11:20.524Z,101639.91
2018-03-18T03:13:49.741Z,101647.63
2018-03-18T03:16:18.070Z,101645.22
2018-03-18T03:18:46.469Z,101644.98
2018-03-18T03:21:14.801Z,101643.28
2018-03-18T03:23:49.520Z,101644.06
2018-03-18T03:26:18.364Z,101646.20
2018-03-18T03:28:46.693Z,101650.34
2018-03-18T03:31:15.013Z,101658.98
2018-03-18T03:33:43.377Z,101647.37
2018-03-18T03:36:11.712Z,101641.59
2018-03-18T03:38:40.017Z,101642.80
2018-03-18T03:41:08.608Z,101643.28
2018-03-18T03:43:36.958Z,101649.77
2018-03-18T03:46:05.273Z,101645.06
2018-03-18T03:48:33.622Z,101650.26
2018-03-18T03:51:01.923Z,101642.41
2018-03-18T03:53:30.293Z,101638.19
2018-03-18T03:55:58.642Z,101655.07
2018-03-18T03:58:26.999Z,101644.48
2018-03-18T04:00:56.118Z,101664.03
2018-03-18T04:03:24.782Z,101659.70
2018-03-18T04:05:53.112Z,101664.39
2018-03-18T04:08:21.422Z,101652.31
2018-03-18T04:10:50.562Z,101668.91
2018-03-18T04:13:18.894Z,101665.56
2018-03-18T04:15:47.245Z,101666.48
2018-03-18T04:18:15.626Z,101675.72
2018-03-18T04:20:43.928Z,101666.94
2018-03-18T04:23:12.270Z,101666.55
2018-03-18T04:25:40.921Z,101670.18
2018-03-18T04:28:09.259Z,101675.34
2018-03-18T04:30:37.607Z,101675.63
2018-03-18T04:33:05.969Z,101681.47
2018-03-18T04:35:34.304Z,101674.72
2018-03-18T04:38:02.605Z,101676.88
2018-03-18T04:40:31.189Z,101679.91
2018-03-18T04:42:59.513Z,101681.61
2018-03-18T04:45:27.840Z,101681.39
2018-03-18T04:47:56.435Z,101673.66
2018-03-18T04:50:24.745Z,101677.83
2018-03-18T04:52:53.069Z,101674.98
2018-03-18T04:55:21.417Z,101677.39
2018-03-18T04:57:49.740Z,101674.34
2018-03-18T05:00:18.042Z,101676.66
2018-03-18T05:02:46.399Z,101676.58
2018-03-18T05:05:15.531Z,101676.26
2018-03-18T05:07:43.832Z,101680.77
2018-03-18T05:10:12.544Z,101682.07
2018-03-18T05:12:40.857Z,101693.01
2018-03-18T05:15:09.190Z,101687.44
2018-03-18T05:17:37.989Z,101682.26
2018-03-18T05:20:06.301Z,101702.47
2018-03-18T05:22:35.399Z,101695.07
2018-03-18T05:25:03.780Z,101708.84
2018-03-18T05:27:32.086Z,101690.73
2018-03-18T05:30:00.405Z,101693.14
2018-03-18T05:32:28.849Z,101701.50
2018-03-18T05:34:57.154Z,101704.93
2018-03-18T05:37:25.467Z,101704.61
2018-03-18T05:39:53.836Z,101721.95
2018-03-18T05:42:22.940Z,101705.50
2018-03-18T05:44:52.201Z,101711.61
2018-03-18T05:47:20.539Z,101707.53
2018-03-18T05:49:48.854Z,101701.61
2018-03-18T05:52:17.209Z,101711.20
2018-03-18T05:54:45.894Z,101702.98
2018-03-18T05:57:14.231Z,101708.15
2018-03-18T05:59:43.304Z,101703.80
2018-03-18T06:02:11.632Z,101719.23
2018-03-18T06:04:39.982Z,101716.41
2018-03-18T06:07:08.312Z,101703.41
2018-03-18T06:09:36.648Z,101708.55
2018-03-18T06:12:05.813Z,101715.98
2018-03-18T06:14:34.129Z,101723.75
2018-03-18T06:17:03.612Z,101727.47
2018-03-18T06:19:31.965Z,101731.92
2018-03-18T06:22:00.273Z,101729.00
2018-03-18T06:24:28.606Z,101725.95
2018-03-18T06:26:56.936Z,101729.02
2018-03-18T06:29:25.278Z,101734.48
2018-03-18T06:31:53.874Z,101742.33
2018-03-18T06:34:22.176Z,101744.56
2018-03-18T06:36:50.460Z,101743.66
2018-03-18T06:39:18.875Z,101739.09
2018-03-18T06:41:47.205Z,101743.08
2018-03-18T06:44:15.515Z,101741.69
2018-03-18T06:46:43.873Z,101739.84
2018-03-18T06:49:12.952Z,101744.28
2018-03-18T06:51:41.266Z,101737.86
2018-03-18T06:54:09.617Z,101747.77
2018-03-18T06:56:37.929Z,101741.98
2018-03-18T06:59:06.249Z,101742.00
2018-03-18T07:01:34.721Z,101745.73
2018-03-18T07:04:03.029Z,101750.09
2018-03-18T07:06:31.346Z,101748.27
2018-03-18T07:09:00.082Z,101748.73
2018-03-18T07:11:28.392Z,101746.37
2018-03-18T07:13:56.724Z,101744.88
2018-03-18T07:16:25.136Z,101754.71
2018-03-18T07:18:54.226Z,101757.60
2018-03-18T07:21:22.563Z,101743.02
2018-03-18T07:23:50.986Z,101753.67
2018-03-18T07:26:19.304Z,101761.50
2018-03-18T07:28:47.647Z,101750.16
2018-03-18T07:31:16.748Z,101772.92
2018-03-18T07:33:45.819Z,101767.58
2018-03-18T07:36:14.120Z,101757.58
2018-03-18T07:38:43.231Z,101755.39
2018-03-18T07:41:12.324Z,101765.19
2018-03-18T07:43:41.435Z,101771.23
2018-03-18T07:46:10.116Z,101760.56
2018-03-18T07:48:38.726Z,101755.39
2018-03-18T07:51:07.022Z,101760.69
2018-03-18T07:53:35.366Z,101753.55
2018-03-18T07:56:03.694Z,101774.60
2018-03-18T07:58:32.054Z,101770.11
2018-03-18T08:01:00.366Z,101766.31
2018-03-18T08:03:29.478Z,101766.38
2018-03-18T08:05:58.585Z,101771.09
2018-03-18T08:08:27.113Z,101770.73
2018-03-18T08:10:55.463Z,101765.47
2018-03-18T08:13:23.770Z,101765.84
2018-03-18T08:15:52.117Z,101763.17
2018-03-18T08:18:20.448Z,101771.84
2018-03-18T08:20:49.620Z,101770.20
2018-03-18T08:23:18.224Z,101770.77
2018-03-18T08:25:46.560Z,101775.21
2018-03-18T08:28:14.901Z,101778.16
2018-03-18T08:30:44.328Z,101780.54
2018-03-18T08:33:12.682Z,101770.73
2018-03-18T08:35:41.771Z,101771.98
2018-03-18T08:38:10.102Z,101774.84
2018-03-18T08:40:38.553Z,101782.46
2018-03-18T08:43:06.869Z,101767.06
2018-03-18T08:45:35.208Z,101769.69
2018-03-18T08:48:03.524Z,101776.85
2018-03-18T08:50:31.851Z,101781.62
2018-03-18T08:53:00.999Z,101772.61
2018-03-18T08:55:29.398Z,101775.80
2018-03-18T08:57:57.742Z,101762.39
2018-03-18T09:00:26.718Z,101765.02
2018-03-18T09:02:55.021Z,101783.36
2018-03-18T09:05:23.326Z,101795.17
2018-03-18T09:07:51.673Z,101783.02
2018-03-18T09:10:19.979Z,101774.88
2018-03-18T09:12:48.377Z,101771.00
2018-03-18T09:15:17.918Z,101772.92
2018-03-18T09:17:46.317Z,101770.05
2018-03-18T09:20:14.596Z,101757.20
2018-03-18T09:22:42.975Z,101762.52
2018-03-18T09:25:11.286Z,101764.50
2018-03-18T09:27:39.614Z,101756.58
2018-03-18T09:30:07.936Z,101776.71
2018-03-18T09:32:36.331Z,101767.95
2018-03-18T09:35:04.659Z,101772.25
2018-03-18T09:37:33.434Z,101764.58
2018-03-18T09:40:01.774Z,101755.17
2018-03-18T09:42:30.114Z,101757.36
2018-03-18T09:44:58.614Z,101766.71
2018-03-18T09:47:27.101Z,101759.41
2018-03-18T09:49:55.469Z,101762.27
2018-03-18T09:52:23.859Z,101750.87
2018-03-18T09:54:52.273Z,101749.30
2018-03-18T09:57:21.403Z,101761.97
2018-03-18T09:59:49.825Z,101753.02
2018-03-18T10:02:18.189Z,101750.45
2018-03-18T10:04:46.534Z,101742.94
2018-03-18T10:07:14.941Z,101737.31
2018-03-18T10:09:43.299Z,101747.23
2018-03-18T10:12:11.750Z,101744.12
2018-03-18T10:14:41.177Z,101745.31
2018-03-18T10:17:09.711Z,101737.83
2018-03-18T10:19:38.109Z,101741.45
2018-03-18T10:22:06.897Z,101730.69
2018-03-18T10:24:35.319Z,101728.84
2018-03-18T10:27:03.761Z,101748.00
2018-03-18T10:29:32.118Z,101741.59
2018-03-18T10:32:01.239Z,101739.23
2018-03-18T10:34:29.569Z,101730.08
2018-03-18T10:36:57.925Z,101723.23
2018-03-18T10:39:26.298Z,101722.86
2018-03-18T10:41:54.697Z,101740.34
2018-03-18T10:44:23.262Z,101745.72
2018-03-18T10:46:51.590Z,101742.95
2018-03-18T10:49:19.933Z,101729.55
2018-03-18T10:51:48.802Z,101733.91
2018-03-18T10:54:17.232Z,101734.11
2018-03-18T10:56:45.560Z,101730.91
2018-03-18T10:59:13.907Z,101731.63
2018-03-18T11:01:47.714Z,101729.73
2018-03-18T11:04:18.389Z,101709.91
2018-03-18T11:06:46.773Z,101711.92
2018-03-18T11:09:15.147Z,101714.80
2018-03-18T11:11:43.502Z,101715.23
2018-03-18T11:14:12.622Z,101709.86
2018-03-18T11:16:41.206Z,101701.21
2018-03-18T11:19:09.583Z,101710.59
2018-03-18T11:21:38.707Z,101707.19
2018-03-18T11:24:07.031Z,101702.77
2018-03-18T11:26:36.019Z,101695.36
2018-03-18T11:29:04.446Z,101703.11
2018-03-18T11:31:32.779Z,101704.72
2018-03-18T11:34:01.150Z,101700.02
2018-03-18T11:36:29.461Z,101699.48
2018-03-18T11:38:57.814Z,101691.48
2018-03-18T11:41:26.173Z,101677.84
2018-03-18T11:43:54.529Z,101690.64
2018-03-18T11:46:22.841Z,101693.73
2018-03-18T11:48:51.547Z,101684.96
2018-03-18T11:51:20.665Z,101691.11
2018-03-18T11:53:49.768Z,101680.76
2018-03-18T11:56:18.116Z,101685.56
2018-03-18T11:58:46.525Z,101690.31
2018-03-18T12:01:14.831Z,101680.71
2018-03-18T12:03:43.454Z,101694.61
2018-03-18T12:06:12.571Z,101686.20
2018-03-18T12:08:58.839Z,101677.71
2018-03-18T12:11:27.175Z,101681.30
2018-03-18T12:13:55.534Z,101678.50
2018-03-18T12:16:24.658Z,101675.84
2018-03-18T12:18:53.555Z,101674.76
2018-03-18T12:21:21.886Z,101665.53
2018-03-18T12:23:51.083Z,101668.66
2018-03-18T12:26:19.401Z,101667.00
2018-03-18T12:28:47.741Z,101669.16
2018-03-18T12:31:17.013Z,101662.72
2018-03-18T12:33:45.359Z,101660.89
2018-03-18T12:36:13.689Z,101669.91
2018-03-18T12:38:42.309Z,101657.73
2018-03-18T12:41:10.625Z,101666.10
2018-03-18T12:43:38.974Z,101654.46
2018-03-18T12:46:08.106Z,101648.14
2018-03-18T12:48:36.429Z,101637.73
2018-03-18T12:51:04.808Z,101640.27
2018-03-18T12:53:33.533Z,101636.45
2018-03-18T12:56:01.899Z,101648.80
2018-03-18T12:58:30.245Z,101630.64
2018-03-18T13:00:58.604Z,101621.64
2018-03-18T13:03:27.772Z,101628.09
2018-03-18T13:05:56.131Z,101624.95
2018-03-18T13:08:24.486Z,101634.05
2018-03-18T13:10:53.592Z,101634.01
2018-03-18T13:13:22.730Z,101628.92
2018-03-18T13:15:51.567Z,101639.12
2018-03-18T13:18:19.911Z,101634.55
2018-03-18T13:20:48.541Z,101632.98
2018-03-18T13:23:17.661Z,101636.30
2018-03-18T13:25:46.003Z,101624.42
2018-03-18T13:28:14.332Z,101624.84
2018-03-18T13:30:42.662Z,101619.60
2018-03-18T13:33:11.750Z,101621.41
2018-03-18T13:35:40.074Z,101624.37
2018-03-18T13:38:08.818Z,101607.47
2018-03-18T13:40:37.161Z,101592.77
2018-03-18T13:43:05.513Z,101610.62
2018-03-18T13:45:33.860Z,101602.08
2018-03-18T13:48:02.235Z,101605.11
2018-03-18T13:50:31.334Z,101598.84
2018-03-18T13:53:00.922Z,101614.94
2018-03-18T13:55:29.308Z,101596.86
2018-03-18T13:57:57.652Z,101609.75
2018-03-18T14:00:26.232Z,101595.91
2018-03-18T14:02:54.561Z,101594.17
2018-03-18T14:05:23.712Z,101621.41
2018-03-18T14:07:52.334Z,101599.91
2018-03-18T14:10:20.667Z,101586.61
2018-03-18T14:12:48.996Z,101583.35
2018-03-18T14:15:17.373Z,101584.00
2018-03-18T14:17:45.687Z,101584.35
2018-03-18T14:20:14.039Z,101577.86
2018-03-18T14:22:42.422Z,101579.98
2018-03-18T14:25:11.512Z,101570.24
2018-03-18T14:27:40.628Z,101579.41
2018-03-18T14:30:09.404Z,101576.61
2018-03-18T14:32:37.773Z,101572.42
2018-03-18T14:35:06.895Z,101570.50
2018-03-18T14:37:35.276Z,101583.91
2018-03-18T14:40:03.630Z,101576.19
2018-03-18T14:42:32.753Z,101568.47
2018-03-18T14:45:01.275Z,101560.78
2018-03-18T14:47:29.595Z,101559.51
2018-03-18T14:49:57.925Z,101563.95
2018-03-18T14:52:26.296Z,101577.08
2018-03-18T14:54:54.708Z,101563.80
2018-03-18T14:57:23.017Z,101575.88
2018-03-18T14:59:51.396Z,101578.06
2018-03-18T15:02:19.732Z,101575.32
2018-03-18T15:04:48.114Z,101571.56
2018-03-18T15:07:17.045Z,101567.84
2018-03-18T15:09:45.528Z,101566.52
2018-03-18T15:12:13.948Z,101565.86
2018-03-18T15:14:42.387Z,101558.55
2018-03-18T15:17:10.746Z,101570.32
2018-03-18T15:19:39.126Z,101554.38
2018-03-18T15:22:07.468Z,101560.34
2018-03-18T15:24:35.909Z,101554.23
2018-03-18T15:27:04.296Z,101565.41
2018-03-18T15:29:33.057Z,101555.59
2018-03-18T15:32:02.203Z,101557.87
2018-03-18T15:34:30.738Z,101558.11
2018-03-18T15:36:59.874Z,101560.28
2018-03-18T15:39:28.269Z,101547.98
2018-03-18T15:41:56.607Z,101558.83
2018-03-18T15:44:25.541Z,101560.20
2018-03-18T15:46:53.822Z,101559.83
2018-03-18T15:49:22.120Z,101566.67
2018-03-18T15:51:50.589Z,101558.38
2018-03-18T15:54:18.957Z,101562.64
2018-03-18T15:56:47.346Z,101561.42
2018-03-18T15:59:15.702Z,101571.06
2018-03-18T16:01:44.079Z,101571.05
2018-03-18T16:04:12.444Z,101569.57
2018-03-18T16:06:40.798Z,101573.07
2018-03-18T16:09:09.914Z,101572.59
2018-03-18T16:11:38.272Z,101576.83
2018-03-18T16:14:07.080Z,101574.22
2018-03-18T16:16:35.394Z,101564.72
2018-03-18T16:19:03.692Z,101578.16
2018-03-18T16:21:32.553Z,101562.55
2018-03-18T16:24:00.870Z,101576.27
2018-03-18T16:26:29.234Z,101573.56
2018-03-18T16:32:03.554Z,101573.20
2018-03-18T16:34:31.937Z,101567.61
2018-03-18T16:37:00.273Z,101576.09
2018-03-18T16:39:28.583Z,101568.67
2018-03-18T16:41:56.933Z,101568.66
2018-03-18T16:44:26.023Z,101566.64
2018-03-18T16:46:55.129Z,101568.98
2018-03-18T16:49:23.906Z,101567.28
2018-03-18T16:51:52.997Z,101556.02
2018-03-18T16:54:21.314Z,101574.73
2018-03-18T16:56:49.943Z,101563.62
2018-03-18T16:59:18.296Z,101561.20
2018-03-18T17:01:46.640Z,101564.87
2018-03-18T17:04:15.254Z,101572.18
2018-03-18T17:06:43.587Z,101566.91
2018-03-18T17:09:12.707Z,101570.98
2018-03-18T17:11:41.290Z,101579.14
2018-03-18T17:14:09.634Z,101582.45
2018-03-18T17:16:37.977Z,101575.77
2018-03-18T17:19:06.337Z,101582.13
2018-03-18T17:21:34.671Z,101584.98
2018-03-18T17:24:03.014Z,101588.63
2018-03-18T17:26:31.353Z,101595.27
2018-03-18T17:28:59.666Z,101596.08
2018-03-18T17:31:27.985Z,101602.67
2018-03-18T17:33:56.860Z,101605.95
2018-03-18T17:36:25.181Z,101604.16
2018-03-18T17:38:54.262Z,101604.55
2018-03-18T17:41:23.403Z,101613.23
2018-03-18T17:43:51.964Z,101610.27
2018-03-18T17:46:38.084Z,101616.16
2018-03-18T17:49:24.223Z,101618.61
2018-03-18T17:52:11.325Z,101614.59
2018-03-18T17:54:57.121Z,101621.06
2018-03-18T17:57:25.498Z,101637.84
2018-03-18T17:59:53.821Z,101628.98
2018-03-18T18:02:22.116Z,101631.45
2018-03-18T18:04:50.863Z,101634.61
2018-03-18T18:07:19.209Z,101646.34
2018-03-18T18:09:47.522Z,101635.11
2018-03-18T18:12:16.937Z,101643.98
2018-03-18T18:14:45.281Z,101640.89
2018-03-18T18:17:13.682Z,101644.20
2018-03-18T18:19:42.103Z,101648.30
2018-03-18T18:22:10.477Z,101641.41
2018-03-18T18:24:38.834Z,101648.45
2018-03-18T18:27:07.242Z,101647.80
2018-03-18T18:29:35.608Z,101651.35
2018-03-18T18:32:03.931Z,101651.05
2018-03-18T18:34:32.776Z,101655.05
2018-03-18T18:37:01.170Z,101656.47
2018-03-18T18:39:30.261Z,101657.76
2018-03-18T18:41:59.158Z,101655.65
2018-03-18T18:44:27.496Z,101658.78
2018-03-18T18:46:56.643Z,101666.53
2018-03-18T18:49:25.016Z,101666.06
2018-03-18T18:51:53.339Z,101667.03
2018-03-18T18:54:21.656Z,101666.66
2018-03-18T18:56:50.301Z,101668.14
2018-03-18T18:59:19.464Z,101674.66
2018-03-18T19:01:47.816Z,101675.92
2018-03-18T19:04:16.222Z,101679.75
2018-03-18T19:06:44.654Z,101683.63
2018-03-18T19:09:13.770Z,101682.74
2018-03-18T19:11:42.165Z,101691.21
2018-03-18T19:14:10.528Z,101691.18
2018-03-18T19:16:38.879Z,101702.53
2018-03-18T19:19:07.803Z,101696.79
2018-03-18T19:21:36.171Z,101697.09
2018-03-18T19:24:04.507Z,101697.91
2018-03-18T19:26:32.868Z,101701.96
2018-03-18T19:29:01.229Z,101706.50
2018-03-18T19:31:29.534Z,101706.98
2018-03-18T19:33:57.926Z,101705.73
2018-03-18T19:36:26.258Z,101706.60
2018-03-18T19:38:54.573Z,101706.64
2018-03-18T19:41:23.063Z,101710.66
2018-03-18T19:43:51.399Z,101709.61
2018-03-18T19:46:19.763Z,101715.64
2018-03-18T19:48:48.133Z,101715.30
2018-03-18T19:51:16.476Z,101717.34
2018-03-18T19:53:44.777Z,101715.33
2018-03-18T19:56:14.599Z,101720.19
2018-03-18T19:58:42.920Z,101712.28
2018-03-18T20:01:11.313Z,101712.59
2018-03-18T20:03:39.869Z,101708.19
2018-03-18T20:06:08.171Z,101711.86
2018-03-18T20:08:36.496Z,101713.33
2018-03-18T20:11:05.605Z,101717.17
2018-03-18T20:13:33.928Z,101715.89
2018-03-18T20:16:02.406Z,101718.97
2018-03-18T20:18:30.779Z,101712.17
2018-03-18T20:20:59.114Z,101719.31
2018-03-18T20:23:28.186Z,101721.90
2018-03-18T20:25:56.604Z,101717.43
2018-03-18T20:28:24.946Z,101721.78
2018-03-18T20:30:53.277Z,101720.90
2018-03-18T20:33:22.044Z,101724.40
2018-03-18T20:35:50.344Z,101724.47
2018-03-18T20:38:18.749Z,101727.06
2018-03-18T20:40:47.105Z,101727.31
2018-03-18T20:43:15.441Z,101732.53
2018-03-18T20:45:44.517Z,101729.86
2018-03-18T20:48:13.362Z,101735.11
2018-03-18T20:50:41.713Z,101737.94
2018-03-18T20:53:10.800Z,101737.94
2018-03-18T20:55:39.938Z,101738.84
2018-03-18T20:58:08.300Z,101738.87
2018-03-18T21:00:36.660Z,101738.33
2018-03-18T21:03:05.791Z,101742.84
2018-03-18T21:05:34.171Z,101730.50
2018-03-18T21:08:02.501Z,101737.33
2018-03-18T21:10:31.374Z,101742.76
2018-03-18T21:12:59.805Z,101751.36
2018-03-18T21:15:28.160Z,101743.22
2018-03-18T21:17:57.259Z,101752.46
2018-03-18T21:20:25.609Z,101755.30
2018-03-18T21:22:53.932Z,101743.69
2018-03-18T21:25:23.084Z,101743.58
2018-03-18T21:27:51.485Z,101746.88
2018-03-18T21:30:19.816Z,101751.61
2018-03-18T21:32:48.380Z,101748.95
2018-03-18T21:35:16.686Z,101752.41
2018-03-18T21:37:45.070Z,101750.19
2018-03-18T21:40:13.517Z,101752.18
2018-03-18T21:42:41.837Z,101746.36
2018-03-18T21:45:10.187Z,101750.27
2018-03-18T21:47:38.941Z,101743.27
2018-03-18T21:50:07.304Z,101739.92
2018-03-18T21:52:35.640Z,101743.25
2018-03-18T21:55:04.184Z,101745.35
2018-03-18T21:57:32.522Z,101747.55
2018-03-18T22:00:00.860Z,101741.20
2018-03-18T22:02:29.236Z,101744.19
2018-03-18T22:04:57.565Z,101748.89
2018-03-18T22:07:25.896Z,101739.22
2018-03-18T22:09:54.240Z,101742.52
2018-03-18T22:12:22.558Z,101737.60
2018-03-18T22:14:50.890Z,101736.64
2018-03-18T22:17:19.348Z,101736.06
2018-03-18T22:19:47.808Z,101740.88
2018-03-18T22:22:16.138Z,101745.45
2018-03-18T22:24:45.626Z,101739.22
2018-03-18T22:27:13.964Z,101751.39
2018-03-18T22:29:42.443Z,101745.96
2018-03-18T22:32:10.827Z,101738.15
2018-03-18T22:34:39.138Z,101734.69
2018-03-18T22:37:07.463Z,101731.28
2018-03-18T22:39:35.894Z,101735.45
2018-03-18T22:42:04.223Z,101737.56
2018-03-18T22:44:32.608Z,101730.23
2018-03-18T22:47:00.951Z,101733.44
2018-03-18T22:49:29.280Z,101731.50
2018-03-18T22:51:57.594Z,101736.64
2018-03-18T22:54:25.970Z,101733.62
2018-03-18T22:56:54.414Z,101732.54
2018-03-18T22:59:22.732Z,101730.38
2018-03-18T23:01:51.523Z,101730.85
2018-03-18T23:04:19.840Z,101728.50
2018-03-18T23:06:49.772Z,101727.64
2018-03-18T23:09:18.165Z,101729.34
2018-03-18T23:11:46.505Z,101736.24
2018-03-18T23:14:15.583Z,101732.50
2018-03-18T23:16:43.916Z,101731.34
2018-03-18T23:19:12.279Z,101727.86
2018-03-18T23:21:40.594Z,101735.63
2018-03-18T23:24:09.000Z,101734.02
2018-03-18T23:26:38.184Z,101729.88
2018-03-18T23:29:06.506Z,101732.64
2018-03-18T23:31:34.857Z,101733.04
2018-03-18T23:34:03.156Z,101722.34
2018-03-18T23:36:32.254Z,101726.62
2018-03-18T23:39:00.643Z,101723.75
2018-03-18T23:41:28.959Z,101723.11
2018-03-18T23:43:57.285Z,101720.77
2018-03-18T23:46:26.538Z,101723.64
2018-03-18T23:48:54.863Z,101720.16
2018-03-18T23:51:24.185Z,101719.80
2018-03-18T23:53:52.562Z,101712.81
2018-03-18T23:56:21.372Z,101711.41
2018-03-18T23:58:51.526Z,101716.82
